Time;durP1;ratioP1;P1;durP2;ratioP2;P2;SDS_P1;SDS_P2;PMS_P1;PMS_P2;Temp;Humidity;BMP_temperature;BMP_pressure;BME280_temperature;BME280_humidity;BME280_pressure;Samples;Min_cycle;Max_cycle;Signal;HPM_P1;HPM_P2
2022/06/16 00:01:13;;;;;;;9.90;7.80;;;27.50;99.90;;;;;;4178897;28;20147;-64
2022/06/16 00:03:20;;;;;;;13.38;8.57;;;27.60;99.90;;;;;;4179942;28;20041;-64
2022/06/16 00:05:29;;;;;;;10.55;8.55;;;27.60;99.90;;;;;;4180447;28;20377;-64
2022/06/16 00:07:33;;;;;;;11.13;7.80;;;27.60;99.90;;;;;;4179835;28;20033;-64
2022/06/16 00:09:39;;;;;;;13.30;8.23;;;27.70;99.90;;;;;;4162391;28;20508;-64
2022/06/16 00:11:46;;;;;;;13.15;7.90;;;27.80;99.90;;;;;;4179344;28;20045;-64
2022/06/16 00:13:51;;;;;;;13.65;7.03;;;27.70;99.90;;;;;;4178455;28;20068;-65
2022/06/16 00:15:58;;;;;;;7.35;6.05;;;28.00;99.90;;;;;;4161873;28;20393;-65
2022/06/16 00:18:03;;;;;;;9.18;7.20;;;28.90;99.90;;;;;;4158335;28;20209;-65
2022/06/16 00:20:08;;;;;;;11.25;5.95;;;29.10;99.90;;;;;;4140784;28;20853;-66
2022/06/16 00:22:14;;;;;;;9.68;6.88;;;29.60;99.90;;;;;;4148797;28;20053;-66
2022/06/16 00:24:35;;;;;;;7.75;7.03;;;29.50;99.90;;;;;;4149492;28;20114;-65
2022/06/16 00:26:39;;;;;;;8.25;7.05;;;29.60;99.90;;;;;;4137175;28;20419;-65
2022/06/16 00:28:46;;;;;;;8.52;6.35;;;29.80;99.90;;;;;;4152142;28;20091;-66
2022/06/16 00:31:02;;;;;;;6.60;5.93;;;29.60;99.90;;;;;;4145008;28;20136;-65
2022/06/16 00:33:07;;;;;;;10.90;6.82;;;29.50;99.90;;;;;;4129387;28;20058;-65
2022/06/16 00:35:15;;;;;;;10.25;6.30;;;29.60;99.90;;;;;;4138685;28;20054;-65
2022/06/16 00:37:22;;;;;;;7.78;5.10;;;29.50;99.90;;;;;;4094810;28;20051;-64
2022/06/16 00:39:27;;;;;;;9.85;5.80;;;29.60;99.90;;;;;;4128081;28;20042;-65
2022/06/16 00:41:37;;;;;;;7.00;4.93;;;29.80;99.90;;;;;;4157939;28;20404;-65
2022/06/16 00:43:44;;;;;;;8.82;5.20;;;29.70;99.90;;;;;;4153330;28;20077;-66
2022/06/16 00:46:01;;;;;;;9.25;5.65;;;29.60;99.90;;;;;;4142602;28;20052;-65
2022/06/16 00:48:07;;;;;;;8.13;5.30;;;29.40;99.90;;;;;;4149071;28;20968;-66
2022/06/16 00:50:19;;;;;;;6.82;5.47;;;29.00;99.90;;;;;;4121606;28;20502;-66
2022/06/16 00:52:28;;;;;;;8.15;5.30;;;28.90;99.90;;;;;;4123201;28;20897;-65
2022/06/16 00:54:37;;;;;;;7.72;5.55;;;29.20;99.90;;;;;;4134363;28;20057;-65
2022/06/16 00:56:43;;;;;;;7.65;4.97;;;29.20;99.90;;;;;;4132466;28;20473;-64
2022/06/16 00:58:56;;;;;;;6.50;5.03;;;29.40;99.90;;;;;;4112548;28;20157;-65
2022/06/16 01:01:04;;;;;;;7.88;5.57;;;29.30;99.90;;;;;;4142595;28;20104;-65
2022/06/16 01:03:11;;;;;;;8.63;5.05;;;29.20;99.90;;;;;;4136449;28;20042;-65
2022/06/16 01:05:18;;;;;;;10.73;4.97;;;29.20;99.90;;;;;;4149891;28;20433;-64
2022/06/16 01:07:40;;;;;;;9.27;5.50;;;29.20;99.90;;;;;;4139145;28;20448;-65
2022/06/16 01:09:47;;;;;;;9.05;5.57;;;29.30;99.90;;;;;;4105917;28;20039;-63
2022/06/16 01:14:32;;;;;;;9.93;6.22;;;29.20;99.90;;;;;;4118962;28;20052;-64
2022/06/16 01:16:42;;;;;;;9.45;6.43;;;29.10;99.90;;;;;;4111291;28;20501;-64
2022/06/16 01:18:52;;;;;;;7.18;6.50;;;29.00;99.90;;;;;;4131788;28;20540;-63
2022/06/16 01:20:56;;;;;;;5.80;5.20;;;29.00;99.90;;;;;;4163992;28;20049;-63
2022/06/16 01:23:17;;;;;;;10.30;6.05;;;29.00;99.90;;;;;;4158192;28;20045;-63
2022/06/16 01:25:28;;;;;;;7.57;6.28;;;29.00;99.90;;;;;;4135606;28;20064;-63
2022/06/16 01:27:50;;;;;;;10.32;6.68;;;29.10;99.90;;;;;;4152847;28;20065;-64
2022/06/16 01:30:13;;;;;;;8.20;6.47;;;29.10;99.90;;;;;;4156800;28;20076;-63
2022/06/16 01:32:37;;;;;;;8.00;6.28;;;29.20;99.90;;;;;;4151812;28;20060;-63
2022/06/16 01:34:51;;;;;;;8.80;7.30;;;29.20;99.90;;;;;;4142603;28;20054;-65
2022/06/16 01:37:05;;;;;;;9.90;6.63;;;29.20;99.90;;;;;;4126584;28;20540;-63
2022/06/16 01:39:16;;;;;;;7.25;6.32;;;29.10;99.90;;;;;;4148750;28;20058;-64
2022/06/16 01:41:26;;;;;;;8.93;6.88;;;29.20;99.90;;;;;;4128356;28;20429;-63
2022/06/16 01:43:44;;;;;;;9.15;6.47;;;29.30;99.90;;;;;;4143560;28;20053;-63
2022/06/16 01:46:06;;;;;;;9.52;6.45;;;29.40;99.90;;;;;;4140749;28;20847;-63
2022/06/16 01:48:14;;;;;;;7.70;6.47;;;29.50;99.90;;;;;;4144271;28;20593;-64
2022/06/16 01:50:26;;;;;;;8.23;6.22;;;29.60;99.90;;;;;;4141814;28;20046;-63
2022/06/16 01:52:40;;;;;;;7.75;6.75;;;29.60;99.90;;;;;;4126086;28;20096;-63
2022/06/16 01:54:49;;;;;;;7.35;6.05;;;29.70;99.90;;;;;;4134023;28;20140;-63
2022/06/16 01:57:10;;;;;;;7.03;6.27;;;29.80;99.90;;;;;;4118400;28;20133;-63
2022/06/16 01:59:20;;;;;;;9.63;6.53;;;29.80;99.90;;;;;;4158035;28;20292;-63
2022/06/16 02:01:29;;;;;;;10.65;7.10;;;29.80;99.90;;;;;;4129196;28;20057;-63
2022/06/16 02:03:43;;;;;;;9.68;7.00;;;29.90;99.90;;;;;;4161659;28;20048;-63
2022/06/16 02:05:56;;;;;;;8.98;7.20;;;30.00;99.90;;;;;;4127273;28;20853;-63
2022/06/16 02:08:12;;;;;;;11.05;7.70;;;30.00;99.90;;;;;;4142367;28;20153;-64
2022/06/16 02:10:29;;;;;;;9.00;7.32;;;30.00;99.90;;;;;;4127305;28;20066;-63
2022/06/16 02:15:06;;;;;;;8.18;6.72;;;30.10;99.90;;;;;;4154979;28;20045;-63
2022/06/16 02:17:24;;;;;;;7.65;6.13;;;30.10;99.90;;;;;;4142306;28;20034;-63
2022/06/16 02:19:29;;;;;;;7.65;6.28;;;30.20;99.90;;;;;;4147847;28;20400;-63
2022/06/16 02:21:36;;;;;;;6.60;5.47;;;30.20;99.90;;;;;;4125122;28;20042;-65
2022/06/16 02:23:45;;;;;;;6.38;5.55;;;30.20;99.90;;;;;;4151929;28;20042;-65
2022/06/16 02:25:52;;;;;;;7.47;5.32;;;30.20;99.90;;;;;;4141656;28;20054;-64
2022/06/16 02:27:59;;;;;;;7.90;5.25;;;30.30;99.90;;;;;;4141525;28;20049;-63
2022/06/16 02:30:06;;;;;;;6.85;4.70;;;30.30;99.90;;;;;;4135656;28;20563;-64
2022/06/16 02:32:44;;;;;;;10.20;5.00;;;30.30;99.90;;;;;;4158642;28;20103;-64
2022/06/16 02:35:03;;;;;;;6.10;4.50;;;30.30;99.90;;;;;;4152162;28;20080;-63
2022/06/16 02:37:18;;;;;;;9.10;4.55;;;30.30;99.90;;;;;;4130800;28;20572;-63
2022/06/16 02:39:35;;;;;;;6.78;4.18;;;30.20;99.90;;;;;;4112932;28;20146;-63
2022/06/16 02:42:05;;;;;;;7.22;4.07;;;30.30;99.90;;;;;;4134133;28;20045;-63
2022/06/16 02:44:28;;;;;;;5.80;3.95;;;30.40;99.90;;;;;;4137701;28;20053;-65
2022/06/16 02:46:48;;;;;;;8.18;4.43;;;30.40;99.90;;;;;;4144512;28;20052;-63
2022/06/16 02:49:07;;;;;;;4.47;4.00;;;30.50;99.90;;;;;;4150689;28;20578;-64
2022/06/16 02:51:17;;;;;;;4.82;4.22;;;30.60;99.90;;;;;;4124570;28;20795;-64
2022/06/16 02:53:53;;;;;;;6.85;4.30;;;30.60;99.90;;;;;;4121262;28;20133;-64
2022/06/16 02:56:01;;;;;;;10.45;4.25;;;30.60;99.90;;;;;;4136180;28;20133;-64
2022/06/16 02:58:08;;;;;;;4.47;4.00;;;30.50;99.90;;;;;;4113570;28;20053;-64
2022/06/16 03:00:28;;;;;;;5.72;4.32;;;30.60;99.90;;;;;;4105333;28;20047;-64
2022/06/16 03:02:34;;;;;;;6.38;4.00;;;30.70;99.90;;;;;;4136976;28;20524;-64
2022/06/16 03:04:43;;;;;;;5.45;3.95;;;30.70;99.90;;;;;;4080538;28;20048;-64
2022/06/16 03:06:49;;;;;;;4.68;3.67;;;30.70;99.90;;;;;;4146959;28;20046;-63
2022/06/16 03:08:55;;;;;;;6.70;4.15;;;30.70;99.90;;;;;;4136768;28;20078;-64
2022/06/16 03:11:08;;;;;;;6.53;4.35;;;30.70;99.90;;;;;;4144040;28;20133;-64
2022/06/16 03:13:20;;;;;;;6.40;3.88;;;30.80;99.90;;;;;;4128885;28;20050;-64
2022/06/16 03:15:29;;;;;;;5.93;4.22;;;30.90;99.90;;;;;;4145718;28;20041;-64
2022/06/16 03:17:36;;;;;;;7.32;4.07;;;31.00;99.90;;;;;;4111347;28;20118;-64
2022/06/16 03:19:42;;;;;;;5.88;4.18;;;31.00;99.90;;;;;;4142450;28;20072;-63
2022/06/16 03:21:47;;;;;;;7.75;3.60;;;31.10;99.90;;;;;;4143391;28;20459;-64
2022/06/16 03:23:54;;;;;;;6.35;4.07;;;31.10;99.90;;;;;;4131463;28;20345;-64
2022/06/16 03:26:04;;;;;;;5.80;4.07;;;31.20;99.90;;;;;;4143655;28;20131;-64
2022/06/16 03:28:10;;;;;;;5.60;4.00;;;31.20;99.90;;;;;;4137805;28;20074;-64
2022/06/16 03:30:22;;;;;;;;;;;31.30;99.90;;;;;;4135583;28;20073;-64
2022/06/16 03:32:29;;;;;;;7.72;4.07;;;31.30;99.90;;;;;;4143915;28;19925;-64
2022/06/16 03:34:34;;;;;;;4.47;3.60;;;31.30;99.90;;;;;;4138110;28;20432;-64
2022/06/16 03:36:42;;;;;;;4.05;3.60;;;31.40;99.90;;;;;;4142901;28;20136;-64
2022/06/16 03:39:01;;;;;;;6.70;4.00;;;31.50;99.90;;;;;;4143129;28;20053;-64
2022/06/16 03:41:05;;;;;;;4.90;3.67;;;31.60;99.90;;;;;;4142726;28;20510;-64
2022/06/16 03:43:13;;;;;;;5.18;3.60;;;31.70;99.90;;;;;;4143190;28;20121;-64
2022/06/16 03:45:20;;;;;;;5.13;3.85;;;31.70;99.90;;;;;;4142644;28;20113;-64
2022/06/16 03:47:28;;;;;;;4.72;3.33;;;31.80;99.90;;;;;;4127605;28;20056;-64
2022/06/16 03:49:38;;;;;;;4.43;3.42;;;31.80;99.90;;;;;;4152922;28;20103;-64
2022/06/16 03:51:45;;;;;;;5.70;3.60;;;31.90;99.90;;;;;;4141753;28;20045;-64
2022/06/16 03:53:54;;;;;;;5.22;3.40;;;31.90;99.90;;;;;;4138119;28;20053;-64
2022/06/16 03:56:02;;;;;;;4.72;3.38;;;32.10;99.90;;;;;;4151825;28;20037;-63
2022/06/16 03:58:11;;;;;;;3.83;3.38;;;32.10;99.90;;;;;;4139339;28;20626;-64
2022/06/16 04:00:17;;;;;;;5.63;3.42;;;32.20;99.90;;;;;;4159179;28;20054;-64
2022/06/16 04:02:21;;;;;;;7.78;3.58;;;32.20;99.90;;;;;;4145556;28;20049;-64
2022/06/16 04:04:28;;;;;;;4.32;3.40;;;32.30;99.90;;;;;;4127368;28;20080;-64
2022/06/16 04:06:37;;;;;;;5.47;3.65;;;32.30;99.90;;;;;;4130990;28;20069;-64
2022/06/16 04:08:44;;;;;;;5.00;3.20;;;32.30;99.90;;;;;;4135810;28;20084;-64
2022/06/16 04:10:51;;;;;;;5.38;3.28;;;32.30;99.90;;;;;;4124916;28;20082;-64
2022/06/16 04:12:56;;;;;;;5.00;3.50;;;32.20;99.90;;;;;;4158101;28;20464;-64
2022/06/16 04:15:06;;;;;;;5.18;3.67;;;32.30;99.90;;;;;;4126094;28;20175;-64
2022/06/16 04:17:20;;;;;;;5.55;4.05;;;32.40;99.90;;;;;;4129142;28;20046;-63
2022/06/16 04:19:26;;;;;;;4.30;3.20;;;32.50;99.90;;;;;;4148738;28;20064;-64
2022/06/16 04:21:35;;;;;;;3.63;3.00;;;32.50;99.90;;;;;;4155054;28;20053;-65
2022/06/16 04:24:01;;;;;;;6.75;3.65;;;32.40;99.90;;;;;;4161867;28;20045;-65
2022/06/16 04:26:06;;;;;;;7.97;4.25;;;32.30;99.90;;;;;;4117268;28;20051;-66
2022/06/16 04:28:19;;;;;;;8.75;5.05;;;32.20;99.90;;;;;;4131083;28;20050;-65
2022/06/16 04:30:27;;;;;;;5.97;3.95;;;32.30;99.90;;;;;;4150778;28;20084;-65
2022/06/16 04:32:33;;;;;;;5.45;4.03;;;32.40;99.90;;;;;;4127070;28;20133;-65
2022/06/16 04:34:44;;;;;;;6.07;3.30;;;32.50;99.90;;;;;;4117331;28;20052;-65
2022/06/16 04:36:51;;;;;;;5.72;3.25;;;32.50;99.80;;;;;;4143836;28;20046;-65
2022/06/16 04:38:57;;;;;;;7.65;3.55;;;32.60;99.80;;;;;;4160878;28;20114;-63
2022/06/16 04:41:05;;;;;;;4.85;3.45;;;32.60;99.50;;;;;;4062336;28;20119;-65
2022/06/16 04:43:15;;;;;;;5.15;3.20;;;32.70;99.20;;;;;;4113370;28;20117;-65
2022/06/16 04:45:27;;;;;;;8.30;4.10;;;32.50;98.90;;;;;;4116269;28;20129;-64
2022/06/16 04:47:35;;;;;;;4.18;3.15;;;32.50;98.70;;;;;;4086956;28;20104;-64
2022/06/16 04:49:39;;;;;;;6.72;3.17;;;32.70;98.30;;;;;;4099294;28;20054;-65
2022/06/16 04:51:44;;;;;;;4.10;3.30;;;32.80;98.70;;;;;;4123148;28;20068;-64
2022/06/16 04:53:58;;;;;;;5.30;3.58;;;32.90;97.80;;;;;;4094414;28;20126;-65
2022/06/16 04:56:25;;;;;;;3.72;3.30;;;33.00;97.70;;;;;;4112039;28;20104;-64
2022/06/16 04:58:37;;;;;;;6.20;3.60;;;33.10;97.90;;;;;;4102621;28;20038;-64
2022/06/16 05:00:56;;;;;;;9.38;4.25;;;33.20;97.10;;;;;;4108538;28;20055;-64
2022/06/16 05:03:42;;;;;;;6.40;3.90;;;33.20;97.90;;;;;;4107304;28;20093;-64
2022/06/16 05:06:00;;;;;;;5.90;3.25;;;33.30;97.40;;;;;;4123919;28;20105;-64
2022/06/16 05:08:24;;;;;;;4.55;3.70;;;33.40;97.90;;;;;;4111898;28;20057;-64
2022/06/16 05:10:42;;;;;;;4.50;3.30;;;33.30;98.10;;;;;;4121702;28;20045;-65
2022/06/16 05:13:00;;;;;;;8.32;3.50;;;33.40;97.70;;;;;;4125226;28;20046;-65
2022/06/16 05:15:24;;;;;;;4.38;3.17;;;33.50;96.40;;;;;;4153411;28;20384;-65
2022/06/16 05:17:42;;;;;;;5.55;3.47;;;33.50;96.50;;;;;;4144955;28;20065;-64
2022/06/16 05:20:00;;;;;;;4.80;3.60;;;33.50;96.20;;;;;;4124642;28;20437;-65
2022/06/16 05:22:16;;;;;;;4.57;3.58;;;33.50;96.70;;;;;;4141879;28;20053;-65
2022/06/16 05:24:33;;;;;;;5.07;3.72;;;33.30;97.80;;;;;;4136626;28;20049;-63
2022/06/16 05:26:52;;;;;;;5.45;3.50;;;33.20;97.50;;;;;;4141979;28;20087;-64
2022/06/16 05:29:16;;;;;;;5.55;3.67;;;33.10;97.70;;;;;;4147536;28;20041;-64
2022/06/16 05:31:36;;;;;;;5.82;3.90;;;33.20;97.50;;;;;;4128820;28;20076;-63
2022/06/16 05:34:03;;;;;;;6.18;3.85;;;33.40;97.30;;;;;;4145192;28;20033;-63
2022/06/16 05:36:20;;;;;;;5.00;3.55;;;33.60;97.30;;;;;;4145368;28;20053;-64
2022/06/16 05:38:40;;;;;;;4.70;3.70;;;33.50;97.20;;;;;;4140134;28;20421;-63
2022/06/16 05:41:13;;;;;;;7.82;3.50;;;33.50;97.20;;;;;;4155170;28;20056;-64
2022/06/16 05:43:37;;;;;;;4.45;3.63;;;33.30;97.10;;;;;;4137603;28;20893;-63
2022/06/16 05:46:04;;;;;;;6.72;4.03;;;33.20;97.10;;;;;;4149065;28;20046;-64
2022/06/16 05:48:19;;;;;;;6.70;3.83;;;33.20;97.00;;;;;;4143523;28;20069;-64
2022/06/16 05:50:25;;;;;;;5.25;3.90;;;33.20;97.20;;;;;;4125646;28;20070;-64
2022/06/16 05:52:32;;;;;;;6.35;3.75;;;33.20;97.30;;;;;;4151510;28;20053;-63
2022/06/16 05:54:49;;;;;;;5.38;3.75;;;33.30;97.20;;;;;;4144620;28;20397;-64
2022/06/16 05:56:56;;;;;;;4.93;3.55;;;33.50;96.80;;;;;;4118786;28;20125;-63
2022/06/16 05:59:02;;;;;;;5.05;3.92;;;33.50;96.20;;;;;;4125699;28;20054;-64
2022/06/16 06:01:19;;;;;;;5.40;3.50;;;33.40;96.20;;;;;;4125749;28;20074;-64
2022/06/16 06:03:30;;;;;;;6.68;3.58;;;33.40;96.40;;;;;;4130256;28;20052;-63
2022/06/16 06:05:37;;;;;;;6.32;3.80;;;33.30;96.50;;;;;;4136564;28;20081;-64
2022/06/16 06:16:59;;;;;;;5.72;3.63;;;34.00;96.20;;;;;;4117215;28;20046;-64
2022/06/16 06:23:44;;;;;;;7.00;4.15;;;33.80;96.30;;;;;;4137998;28;20053;-64
2022/06/16 06:25:57;;;;;;;6.32;4.38;;;33.60;96.00;;;;;;4153999;28;20091;-64
2022/06/16 06:28:02;;;;;;;6.70;4.28;;;33.50;96.30;;;;;;4152290;28;20045;-64
2022/06/16 06:30:28;;;;;;;6.10;4.15;;;33.50;96.70;;;;;;4151122;28;20038;-64
2022/06/16 06:32:39;;;;;;;4.57;3.63;;;33.60;95.90;;;;;;4143482;28;20042;-64
2022/06/16 06:34:47;;;;;;;4.80;3.85;;;33.90;95.60;;;;;;4158716;28;20052;-64
2022/06/16 06:36:51;;;;;;;4.28;3.50;;;34.00;95.90;;;;;;4165925;28;20056;-64
2022/06/16 06:38:57;;;;;;;5.75;4.07;;;33.90;95.50;;;;;;4170024;28;20144;-64
2022/06/16 06:41:07;;;;;;;6.30;3.70;;;33.70;95.90;;;;;;4176684;28;20045;-64
2022/06/16 06:43:11;;;;;;;5.05;3.95;;;33.70;96.20;;;;;;4142882;28;20056;-64
2022/06/16 06:45:17;;;;;;;5.20;3.60;;;33.70;96.50;;;;;;4175939;28;20091;-64
2022/06/16 06:47:27;;;;;;;5.40;3.90;;;33.80;96.10;;;;;;4174068;28;20048;-63
2022/06/16 06:49:32;;;;;;;5.00;4.15;;;33.90;96.10;;;;;;4133914;28;20054;-64
2022/06/16 06:51:39;;;;;;;6.00;4.15;;;34.10;95.80;;;;;;4154835;28;20038;-64
2022/06/16 06:53:46;;;;;;;5.07;4.03;;;34.20;95.60;;;;;;4160927;28;20041;-64
2022/06/16 06:55:50;;;;;;;5.13;3.78;;;34.30;95.50;;;;;;4165334;28;20551;-64
2022/06/16 06:57:54;;;;;;;5.05;3.95;;;34.10;95.60;;;;;;4164913;28;20068;-65
2022/06/16 07:00:14;;;;;;;6.30;3.95;;;34.30;95.70;;;;;;4150272;28;20804;-64
2022/06/16 07:02:19;;;;;;;6.63;4.07;;;34.40;95.70;;;;;;4152027;28;20049;-64
2022/06/16 07:04:26;;;;;;;6.80;3.97;;;34.60;95.40;;;;;;4175788;28;20045;-64
2022/06/16 07:06:32;;;;;;;5.97;3.63;;;34.50;95.20;;;;;;4158931;28;20124;-64
2022/06/16 07:08:37;;;;;;;4.97;3.80;;;34.20;95.40;;;;;;4143480;28;20092;-63
2022/06/16 07:10:43;;;;;;;6.30;3.92;;;33.90;95.40;;;;;;4148886;28;20038;-65
2022/06/16 07:12:49;;;;;;;5.88;3.95;;;33.90;94.60;;;;;;4168498;28;20049;-65
2022/06/16 07:14:54;;;;;;;7.57;4.13;;;34.20;94.80;;;;;;4162768;28;20053;-64
2022/06/16 07:17:00;;;;;;;4.78;3.78;;;34.30;95.00;;;;;;4175464;28;20150;-65
2022/06/16 07:19:08;;;;;;;5.40;3.92;;;34.50;94.90;;;;;;4165802;28;20110;-65
2022/06/16 07:21:14;;;;;;;5.93;4.05;;;34.60;94.50;;;;;;4174403;28;20053;-65
2022/06/16 07:23:19;;;;;;;6.50;3.83;;;34.60;94.40;;;;;;4157237;28;20063;-65
2022/06/16 07:25:25;;;;;;;5.68;3.90;;;34.70;94.20;;;;;;4173382;28;20080;-65
2022/06/16 07:27:30;;;;;;;6.25;3.83;;;34.80;94.30;;;;;;4160260;28;20087;-64
2022/06/16 07:29:36;;;;;;;6.32;3.97;;;34.90;94.20;;;;;;4149183;28;20129;-65
2022/06/16 07:31:47;;;;;;;5.68;3.78;;;34.70;93.90;;;;;;4151127;28;20538;-64
2022/06/16 07:33:52;;;;;;;4.32;3.45;;;34.70;94.10;;;;;;4163675;28;20132;-64
2022/06/16 07:35:59;;;;;;;4.63;3.67;;;34.80;94.00;;;;;;4144122;28;20527;-64
2022/06/16 07:38:04;;;;;;;4.95;3.45;;;34.90;94.10;;;;;;4161419;28;20057;-65
2022/06/16 07:40:09;;;;;;;5.88;3.60;;;34.70;94.20;;;;;;4152984;28;20077;-64
2022/06/16 07:42:17;;;;;;;6.28;3.63;;;34.40;94.10;;;;;;4159117;28;20053;-65
2022/06/16 07:44:23;;;;;;;6.05;3.55;;;34.40;94.10;;;;;;4150669;28;20097;-65
2022/06/16 07:46:28;;;;;;;5.28;3.55;;;34.30;93.90;;;;;;4161324;28;20045;-65
2022/06/16 07:48:34;;;;;;;5.20;3.83;;;34.10;94.20;;;;;;4161659;28;20049;-64
2022/06/16 07:50:39;;;;;;;5.15;3.85;;;33.90;94.20;;;;;;4144142;28;20492;-65
2022/06/16 07:52:44;;;;;;;5.57;3.60;;;33.80;94.80;;;;;;4159803;28;20045;-65
2022/06/16 07:54:52;;;;;;;6.95;4.00;;;34.10;94.60;;;;;;4147832;28;20042;-65
2022/06/16 07:57:13;;;;;;;4.82;3.60;;;34.10;94.10;;;;;;4160976;28;20037;-65
2022/06/16 07:59:26;;;;;;;5.35;3.65;;;34.10;93.60;;;;;;4161171;28;20111;-65
2022/06/16 08:01:32;;;;;;;5.32;3.20;;;34.20;93.50;;;;;;4144575;28;20069;-65
2022/06/16 08:03:39;;;;;;;8.00;3.38;;;34.30;93.30;;;;;;4158751;28;20049;-65
2022/06/16 08:05:45;;;;;;;9.40;3.30;;;34.50;93.20;;;;;;4159598;28;20044;-66
2022/06/16 08:07:52;;;;;;;5.13;3.10;;;34.70;92.80;;;;;;4143698;28;20444;-65
2022/06/16 08:09:59;;;;;;;4.57;3.17;;;34.70;93.20;;;;;;4160834;28;20581;-64
2022/06/16 08:12:06;;;;;;;5.75;3.55;;;34.70;92.80;;;;;;4143724;28;20046;-65
2022/06/16 08:14:13;;;;;;;4.55;3.20;;;34.80;92.70;;;;;;4169597;28;20147;-64
2022/06/16 08:16:20;;;;;;;5.95;3.03;;;34.90;92.70;;;;;;4110119;28;20226;-64
2022/06/16 08:18:25;;;;;;;5.18;3.00;;;35.00;92.70;;;;;;4161608;28;20061;-65
2022/06/16 08:20:32;;;;;;;6.03;3.47;;;35.00;91.70;;;;;;4155141;28;20057;-65
2022/06/16 08:22:40;;;;;;;6.45;3.35;;;34.90;91.80;;;;;;4127343;28;20057;-65
2022/06/16 08:24:47;;;;;;;6.43;4.30;;;34.90;91.80;;;;;;4155295;28;20073;-65
2022/06/16 08:26:53;;;;;;;6.93;3.45;;;35.00;91.80;;;;;;4144292;28;20080;-65
2022/06/16 08:29:00;;;;;;;3.97;2.92;;;35.10;91.70;;;;;;4167051;28;20503;-65
2022/06/16 08:31:06;;;;;;;5.68;2.80;;;35.00;91.40;;;;;;4162852;28;20037;-64
2022/06/16 08:33:14;;;;;;;4.53;3.22;;;35.00;91.30;;;;;;4161042;28;20139;-65
2022/06/16 08:35:22;;;;;;;7.43;3.00;;;35.10;91.40;;;;;;4129633;28;20042;-65
2022/06/16 08:37:27;;;;;;;8.82;3.00;;;35.20;91.40;;;;;;4161829;28;20077;-65
2022/06/16 08:39:32;;;;;;;7.97;3.40;;;35.30;91.70;;;;;;4161343;28;20160;-65
2022/06/16 08:41:47;;;;;;;6.43;2.90;;;35.40;92.00;;;;;;4144311;28;20133;-65
2022/06/16 08:44:13;;;;;;;5.20;3.13;;;35.50;91.80;;;;;;4161168;28;20049;-65
2022/06/16 08:46:18;;;;;;;6.78;3.25;;;35.50;91.70;;;;;;4155076;28;20052;-65
2022/06/16 08:48:45;;;;;;;5.38;2.80;;;35.60;91.80;;;;;;4153492;28;20046;-64
2022/06/16 08:51:25;;;;;;;6.18;3.00;;;35.60;91.80;;;;;;4144266;28;20408;-65
2022/06/16 08:54:04;;;;;;;4.32;3.22;;;35.50;91.90;;;;;;4157753;28;20045;-65
2022/06/16 08:56:17;;;;;;;6.40;3.28;;;35.50;91.60;;;;;;4141710;28;20053;-65
2022/06/16 08:58:37;;;;;;;4.32;2.95;;;35.50;91.90;;;;;;4160222;28;20813;-65
2022/06/16 09:00:56;;;;;;;6.47;3.33;;;35.40;91.50;;;;;;4158287;28;20140;-66
2022/06/16 09:03:40;;;;;;;5.20;2.97;;;35.30;91.30;;;;;;4151463;28;20449;-64
2022/06/16 09:06:04;;;;;;;5.85;3.72;;;35.20;91.30;;;;;;4164052;28;20045;-66
2022/06/16 09:08:41;;;;;;;3.85;2.95;;;35.20;91.50;;;;;;4158757;28;20048;-65
2022/06/16 09:11:14;;;;;;;7.22;3.35;;;35.00;91.80;;;;;;4159349;28;20104;-65
2022/06/16 09:14:00;;;;;;;5.25;3.28;;;34.90;91.80;;;;;;4161356;28;20095;-64
2022/06/16 09:16:37;;;;;;;6.43;3.60;;;34.80;91.90;;;;;;4152451;28;20053;-64
2022/06/16 09:19:17;;;;;;;4.68;2.80;;;34.70;91.90;;;;;;4160982;28;20052;-64
2022/06/16 09:21:51;;;;;;;4.20;2.80;;;34.60;91.10;;;;;;4161654;28;20049;-64
2022/06/16 09:24:11;;;;;;;;;;;34.50;91.30;;;;;;4110184;28;20121;-65
2022/06/16 09:27:07;;;;;;;5.55;2.60;;;34.50;91.10;;;;;;4164102;28;20349;-64
2022/06/16 09:29:43;;;;;;;3.50;2.63;;;34.40;91.40;;;;;;4165092;28;20050;-64
2022/06/16 09:31:54;;;;;;;5.45;2.50;;;34.30;91.40;;;;;;4161910;28;20480;-65
2022/06/16 09:34:07;;;;;;;4.95;2.88;;;34.10;91.50;;;;;;4160702;28;20069;-64
2022/06/16 09:36:30;;;;;;;2.97;2.40;;;34.00;92.40;;;;;;4155406;28;20137;-64
2022/06/16 09:38:55;;;;;;;5.32;2.33;;;34.00;92.30;;;;;;4148103;28;20104;-64
2022/06/16 09:44:13;;;;;;;4.82;2.65;;;34.00;92.20;;;;;;4159545;28;20140;-64
2022/06/16 09:46:32;;;;;;;4.22;2.90;;;33.90;92.20;;;;;;4148698;28;20050;-64
2022/06/16 09:48:52;;;;;;;6.72;3.15;;;34.00;92.60;;;;;;4143369;28;20042;-64
2022/06/16 09:51:27;;;;;;;4.95;3.40;;;33.90;92.80;;;;;;4160643;28;20111;-64
2022/06/16 09:53:49;;;;;;;6.50;3.88;;;33.90;93.20;;;;;;4158087;28;20072;-64
2022/06/16 09:56:25;;;;;;;6.72;3.70;;;33.90;93.40;;;;;;4153251;28;20057;-64
2022/06/16 09:58:55;;;;;;;6.43;3.80;;;33.80;93.70;;;;;;4158457;28;20056;-64
2022/06/16 10:01:15;;;;;;;6.28;3.80;;;33.70;93.90;;;;;;4164223;28;20054;-64
2022/06/16 10:03:40;;;;;;;6.65;3.97;;;33.70;94.20;;;;;;4158568;28;20041;-64
2022/06/16 10:06:20;;;;;;;5.07;3.80;;;33.50;94.30;;;;;;4133759;28;20041;-64
2022/06/16 10:08:40;;;;;;;5.65;3.83;;;33.50;94.40;;;;;;4158492;28;20377;-64
2022/06/16 10:11:08;;;;;;;4.78;3.80;;;33.40;94.60;;;;;;4162015;28;20125;-64
2022/06/16 10:13:36;;;;;;;5.03;3.42;;;33.30;94.90;;;;;;4159526;28;20038;-64
2022/06/16 10:15:55;;;;;;;7.07;3.65;;;33.20;95.30;;;;;;4158552;28;20041;-64
2022/06/16 10:18:06;;;;;;;9.45;3.78;;;33.10;95.40;;;;;;4159394;28;20046;-64
2022/06/16 10:20:32;;;;;;;4.75;3.65;;;33.00;95.80;;;;;;4143540;28;20053;-64
2022/06/16 10:23:03;;;;;;;11.45;5.07;;;33.00;95.60;;;;;;4160026;28;20140;-65
2022/06/16 10:25:31;;;;;;;6.95;2.53;;;32.40;94.50;;;;;;4143740;28;20062;-64
2022/06/16 10:27:44;;;;;;;7.35;2.70;;;31.10;94.70;;;;;;4158054;28;20042;-64
2022/06/16 10:30:10;;;;;;;7.50;2.25;;;30.80;94.80;;;;;;4136024;28;20164;-63
2022/06/16 10:32:16;;;;;;;14.07;2.30;;;30.80;94.50;;;;;;4124477;28;20051;-66
2022/06/16 10:34:45;;;;;;;14.07;2.80;;;30.40;94.40;;;;;;4155005;28;20168;-63
2022/06/16 10:37:29;;;;;;;7.43;2.13;;;29.90;95.40;;;;;;4146198;28;20057;-64
2022/06/16 10:40:01;;;;;;;8.95;2.45;;;29.80;95.90;;;;;;4153621;28;20115;-63
2022/06/16 10:42:19;;;;;;;6.50;2.08;;;29.60;95.60;;;;;;4161154;28;20064;-64
2022/06/16 10:44:28;;;;;;;5.50;1.98;;;29.80;95.70;;;;;;4157894;28;20046;-63
2022/06/16 10:46:49;;;;;;;6.03;2.10;;;29.60;95.70;;;;;;4159556;28;20572;-65
2022/06/16 10:48:54;;;;;;;;;;;29.50;96.20;;;;;;4142741;28;20069;-65
2022/06/16 10:51:19;;;;;;;3.08;1.00;;;29.20;96.10;;;;;;4167404;28;19940;-64
2022/06/16 10:53:34;;;;;;;4.65;0.88;;;28.90;96.90;;;;;;4160716;28;20141;-64
2022/06/16 10:55:44;;;;;;;3.53;1.10;;;28.80;97.00;;;;;;4159150;28;20129;-66
2022/06/16 10:58:09;;;;;;;3.08;1.30;;;28.70;97.60;;;;;;4161384;28;20129;-65
2022/06/16 11:00:21;;;;;;;6.47;1.20;;;28.50;98.00;;;;;;4161819;28;20045;-65
2022/06/16 11:02:27;;;;;;;5.75;1.10;;;28.30;97.50;;;;;;4163221;28;20038;-64
2022/06/16 11:04:39;;;;;;;1.65;0.90;;;28.10;98.00;;;;;;4162574;28;20053;-64
2022/06/16 11:07:02;;;;;;;2.17;0.93;;;28.20;98.20;;;;;;4113870;28;20046;-64
2022/06/16 11:09:24;;;;;;;3.33;1.23;;;28.00;98.10;;;;;;4159810;28;20578;-65
2022/06/16 11:11:52;;;;;;;4.68;1.40;;;28.30;97.80;;;;;;4159477;28;20765;-64
2022/06/16 11:14:04;;;;;;;3.45;1.52;;;28.10;97.90;;;;;;4161871;28;20048;-64
2022/06/16 11:16:22;;;;;;;4.75;1.80;;;28.50;97.40;;;;;;4162571;28;20053;-63
2022/06/16 11:18:37;;;;;;;4.28;2.90;;;28.30;97.30;;;;;;4164105;28;20100;-64
2022/06/16 11:20:48;;;;;;;5.00;2.35;;;28.00;97.50;;;;;;4158556;28;20503;-65
2022/06/16 11:22:54;;;;;;;4.85;2.08;;;28.20;97.60;;;;;;4160805;28;20057;-65
2022/06/16 11:25:26;;;;;;;4.35;1.50;;;28.20;97.60;;;;;;4141672;28;20050;-65
2022/06/16 11:27:49;;;;;;;2.65;1.15;;;28.20;97.50;;;;;;4158390;28;20869;-65
2022/06/16 11:29:57;;;;;;;3.00;1.30;;;28.30;97.20;;;;;;4158504;28;20141;-65
2022/06/16 11:32:47;;;;;;;2.83;1.60;;;27.90;97.60;;;;;;4187224;27;20444;-66
2022/06/16 11:34:56;;;;;;;4.57;1.60;;;28.50;97.30;;;;;;4188895;28;20083;-67
2022/06/16 11:37:39;;;;;;;4.68;1.83;;;28.80;96.80;;;;;;4185985;28;20145;-66
2022/06/16 11:40:25;;;;;;;3.53;1.95;;;29.10;96.70;;;;;;4184587;28;20059;-65
2022/06/16 11:43:04;;;;;;;4.47;1.85;;;28.90;96.70;;;;;;4183093;28;20060;-66
2022/06/16 11:45:41;;;;;;;3.78;2.25;;;29.10;96.60;;;;;;4182317;28;20040;-66
2022/06/16 11:48:06;;;;;;;5.03;2.35;;;29.10;96.50;;;;;;4153293;28;20058;-67
2022/06/16 11:50:23;;;;;;;;;;;29.10;96.10;;;;;;4182905;28;20110;-65
2022/06/16 11:52:54;;;;;;;4.97;2.80;;;29.20;96.30;;;;;;4185901;28;19925;-65
2022/06/16 11:55:22;;;;;;;8.25;2.95;;;29.20;96.40;;;;;;4134206;28;20053;-66
2022/06/16 11:58:02;;;;;;;8.77;3.10;;;29.30;96.70;;;;;;4137396;28;20069;-66
2022/06/16 12:00:25;;;;;;;6.00;3.10;;;29.40;96.70;;;;;;4121661;28;20920;-66
2022/06/16 12:03:08;;;;;;;7.07;3.03;;;29.40;97.10;;;;;;4070344;28;20644;-66